Нерха

Карта отелей и гостиниц, располагающихся рядом с аэропортом Нерха :

Нерха Иркутская область 53° 51' 15.84" N, 98° 15' 54.0612" E
Код аэродрома ИКАО
UINH
Код аэродрома RU
УИНХ
Координаты
N53.85440° E098.26502°
Превышение над уровнем моря
875
Основная полоса
13/31
Курс магнитный
129,3/309,3
Длина основной ВПП
700
Ширина основной ВПП
50
Покрытие основной ВПП
Нетвёрдое (грунт)
Освещение ВПП
Нет
Тип: 
Аэродром
Класс аэродрома: 
Принадлежность: 
ГА
Статус: 
Действующий
Сайт: 
http://www.n-airport.ru/
E-mail аэродрома: 
Страна: 
Россия
Регион: 
Иркутская область
Город: 
Дополнительная информация: 
Горный. Оператор: ООО "Аэропорт Нижнеудинск". ПП обслуживает малочисленную народность Тофаларию.

Найти трансфер

С помощью этой формы Вы можете найти трансфер из аэропорта Нерха в город, аэропорт или вокзал:

Карта места

Javascript is required to view this map.

Погода в аэропортах:

Авиационная погода в Киркенесе

Регион: 
Погода METAR: 
ENKR 281320Z 17012KT 9999 VCFG FEW001 SCT016 M21/M23 Q1010 RMK WIND 731FT 17018KT
Время наблюдения
2021-11-28T13:20:00Z
Температура C
-21.0
Точка росы
-23.0
Направление ветра
170
Скорость ветра (узлы)
12
Метео видимость
6.21
Явления погоды
VCFG
Условия полета
VFR

Авиационная погода в Игнатьево

Регион: 
Погода METAR: 
UHBB 281300Z 33002MPS 4200 -SHSN BKN033CB M09/M10 Q1022 R36/821060 NOSIG RMK QFE749/0998
Время наблюдения
2021-11-28T13:00:00Z
Температура C
-9.0
Точка росы
-10.0
Направление ветра
330
Скорость ветра (узлы)
4
Метео видимость
2.61
Явления погоды
-SHSN
Условия полета
IFR
Аэропорт подробнее: 

Авиационная погода в Череповце

Регион: 
Погода METAR: 
ULWC 281300Z 25005G10MPS 9999 -SHSNRA BKN006 OVC013CB 01/M00 Q0998 R21/690239 NOSIG RMK QFE738/0985
Время наблюдения
2021-11-28T13:00:00Z
Температура C
1.0
Точка росы
0.0
Направление ветра
250
Скорость ветра (узлы)
10
Метео видимость
6.21
Явления погоды
-SHSN -SHRA
Условия полета
IFR
Аэропорт подробнее: 

Авиационная погода в Емельяново

Регион: 
Погода METAR: 
UNKL 281300Z 25007MPS 6000 -SHSN SCT041CB M05/M08 Q1026 R29/810245 NOSIG RMK QFE743
Время наблюдения
2021-11-28T13:00:00Z
Температура C
-5.0
Точка росы
-8.0
Направление ветра
250
Скорость ветра (узлы)
14
Метео видимость
3.73
Явления погоды
-SHSN
Условия полета
MVFR
Аэропорт подробнее: